Terminal Aerodrome Forecast
Issued by NWS

Current Version | Previous Version | Text Only | Print | Product List | Glossary On
Versions: 1 2 3 4 5 6 7 8 9 10 11 12 13 14 15 16 17 18 19
523
FTUS43 KJKL 172324
TAFSJS
TAF
KSJS 172324Z 1800/1824 21004KT P6SM SKC
     FM180700 24003KT P6SM VCSH SCT040 BKN200
     FM181200 24003KT 3SM BR BKN006
     FM181400 26005KT P6SM BKN020
     FM181700 27006KT P6SM SCT035=

USA.gov is the U.S. government's official web portal to all federal, state and local government web resources and services.